createdAt,value
2018-04-16T00:01:41.190Z,14.34
2018-04-16T00:06:43.274Z,14.01
2018-04-16T00:11:44.594Z,14.08
2018-04-16T00:16:46.650Z,14.25
2018-04-16T00:21:47.983Z,14.31
2018-04-16T00:26:50.061Z,14.30
2018-04-16T00:31:57.616Z,14.34
2018-04-16T00:37:05.661Z,14.27
2018-04-16T00:42:13.939Z,14.08
2018-04-16T00:47:21.409Z,14.13
2018-04-16T00:52:28.618Z,14.07
2018-04-16T00:57:36.106Z,13.71
2018-04-16T01:02:43.498Z,13.74
2018-04-16T01:07:50.745Z,13.98
2018-04-16T01:12:58.162Z,13.80
2018-04-16T01:18:05.628Z,13.68
2018-04-16T01:23:13.041Z,13.88
2018-04-16T01:28:20.569Z,13.73
2018-04-16T01:33:28.009Z,13.83
2018-04-16T01:38:35.393Z,13.97
2018-04-16T01:43:42.774Z,13.75
2018-04-16T01:54:35.232Z,13.90
2018-04-16T01:59:42.743Z,14.00
2018-04-16T02:04:50.226Z,13.92
2018-04-16T02:09:58.440Z,13.80
2018-04-16T02:15:05.786Z,13.64
2018-04-16T02:20:13.118Z,13.48
2018-04-16T02:25:20.469Z,13.67
2018-04-16T02:30:28.630Z,13.68
2018-04-16T02:35:36.618Z,13.72
2018-04-16T02:40:44.030Z,13.78
2018-04-16T02:45:51.359Z,13.74
2018-04-16T02:50:58.768Z,13.73
2018-04-16T02:56:06.858Z,13.53
2018-04-16T03:01:14.234Z,13.28
2018-04-16T03:06:21.799Z,12.94
2018-04-16T03:11:29.081Z,13.09
2018-04-16T03:16:36.581Z,12.90
2018-04-16T03:21:43.942Z,13.25
2018-04-16T03:26:51.375Z,13.27
2018-04-16T03:31:58.685Z,13.45
2018-04-16T03:37:06.157Z,13.53
2018-04-16T03:42:13.527Z,13.59
2018-04-16T03:47:21.001Z,13.63
2018-04-16T03:52:28.350Z,13.65
2018-04-16T03:57:29.669Z,13.68
2018-04-16T04:02:31.738Z,13.80
2018-04-16T04:07:33.029Z,13.75
2018-04-16T04:12:34.340Z,13.52
2018-04-16T04:17:36.393Z,13.34
2018-04-16T04:22:56.117Z,13.37
2018-04-16T04:28:16.117Z,13.29
2018-04-16T04:33:17.431Z,13.34
2018-04-16T04:38:18.747Z,13.38
2018-04-16T04:43:20.048Z,13.36
2018-04-16T04:48:21.361Z,13.40
2018-04-16T04:53:23.405Z,13.46
2018-04-16T04:58:24.744Z,13.52
2018-04-16T05:03:26.821Z,13.52
2018-04-16T05:08:28.138Z,13.66
2018-04-16T05:13:29.422Z,13.75
2018-04-16T05:18:31.485Z,13.92
2018-04-16T05:23:32.832Z,13.99
2018-04-16T05:28:34.894Z,13.85
2018-04-16T05:33:36.216Z,13.81
2018-04-16T05:38:37.523Z,14.07
2018-04-16T05:43:39.592Z,14.43
2018-04-16T05:48:40.906Z,14.69
2018-04-16T05:53:42.957Z,15.05
2018-04-16T05:58:44.267Z,15.50
2018-04-16T06:03:45.594Z,15.88
2018-04-16T06:08:47.653Z,16.03
2018-04-16T06:13:48.974Z,16.19
2018-04-16T06:18:50.303Z,16.34
2018-04-16T06:23:51.614Z,16.46
2018-04-16T06:28:52.926Z,16.58
2018-04-16T06:33:54.221Z,16.61
2018-04-16T06:38:55.530Z,16.67
2018-04-16T06:43:57.585Z,16.69
2018-04-16T06:48:58.925Z,16.74
2018-04-16T06:54:00.953Z,16.76
2018-04-16T06:59:02.304Z,16.84
2018-04-16T07:04:03.655Z,16.99
2018-04-16T07:09:05.761Z,17.28
2018-04-16T07:14:07.082Z,17.51
2018-04-16T07:19:08.429Z,17.84
2018-04-16T07:24:09.734Z,18.11
2018-04-16T07:29:11.053Z,18.27
2018-04-16T07:34:12.350Z,18.48
2018-04-16T07:39:14.411Z,18.78
2018-04-16T07:44:15.718Z,19.19
2018-04-16T07:49:17.033Z,19.26
2018-04-16T07:54:18.327Z,18.98
2018-04-16T07:59:19.618Z,18.84
2018-04-16T08:04:21.671Z,19.00
2018-04-16T08:09:22.968Z,19.16
2018-04-16T08:14:24.288Z,19.15
2018-04-16T08:19:26.350Z,19.24
2018-04-16T08:24:27.807Z,19.42
2018-04-16T08:29:29.118Z,19.61
2018-04-16T08:34:30.409Z,19.83
2018-04-16T08:39:31.733Z,20.14
2018-04-16T08:44:33.029Z,20.24
2018-04-16T08:49:34.330Z,20.43
2018-04-16T08:54:35.665Z,20.63
2018-04-16T08:59:36.979Z,20.75
2018-04-16T09:04:38.310Z,20.92
2018-04-16T09:09:40.382Z,21.01
2018-04-16T09:14:41.734Z,21.20
2018-04-16T09:19:43.041Z,21.30
2018-04-16T09:24:44.347Z,21.40
2018-04-16T09:29:45.650Z,21.63
2018-04-16T09:34:46.968Z,21.76
2018-04-16T09:39:48.318Z,21.85
2018-04-16T09:44:49.611Z,21.88
2018-04-16T09:49:50.918Z,22.35
2018-04-16T09:54:52.219Z,23.09
2018-04-16T09:59:54.261Z,23.01
2018-04-16T10:04:55.563Z,23.34
2018-04-16T10:09:57.037Z,23.17
2018-04-16T10:14:58.357Z,22.68
2018-04-16T10:19:59.688Z,22.62
2018-04-16T10:25:01.804Z,22.49
2018-04-16T10:30:03.859Z,22.31
2018-04-16T10:35:06.184Z,22.51
2018-04-16T10:40:08.289Z,23.06
2018-04-16T10:45:09.634Z,22.90
2018-04-16T10:50:10.991Z,22.59
2018-04-16T10:55:12.319Z,22.84
2018-04-16T11:00:13.646Z,23.14
2018-04-16T11:05:14.984Z,23.10
2018-04-16T11:10:16.318Z,22.78
2018-04-16T11:15:17.655Z,23.00
2018-04-16T11:20:19.740Z,22.83
2018-04-16T11:25:21.053Z,22.81
2018-04-16T11:30:23.137Z,23.11
2018-04-16T11:35:24.462Z,23.17
2018-04-16T11:40:25.762Z,23.18
2018-04-16T11:45:27.069Z,23.37
2018-04-16T11:50:28.394Z,22.83
2018-04-16T11:55:29.730Z,22.48
2018-04-16T12:00:31.068Z,22.66
2018-04-16T12:05:32.378Z,22.77
2018-04-16T12:10:34.438Z,23.49
2018-04-16T12:15:35.753Z,23.44
2018-04-16T12:20:37.087Z,23.31
2018-04-16T12:25:38.439Z,22.62
2018-04-16T12:30:39.762Z,22.09
2018-04-16T12:35:41.087Z,21.25
2018-04-16T12:40:42.418Z,20.58
2018-04-16T12:45:44.508Z,20.46
2018-04-16T12:50:45.861Z,20.55
2018-04-16T12:55:47.177Z,21.00
2018-04-16T13:00:48.510Z,21.82
2018-04-16T13:05:49.841Z,22.14
2018-04-16T13:10:51.151Z,22.08
2018-04-16T13:15:52.470Z,22.44
2018-04-16T13:20:54.511Z,22.76
2018-04-16T13:25:55.842Z,22.55
2018-04-16T13:30:57.180Z,22.47
2018-04-16T13:35:58.518Z,22.65
2018-04-16T13:40:59.836Z,22.38
2018-04-16T13:46:01.895Z,22.37
2018-04-16T13:51:03.277Z,22.18
2018-04-16T13:56:04.626Z,22.48
2018-04-16T14:01:05.937Z,22.79
2018-04-16T14:06:07.254Z,22.74
2018-04-16T14:11:08.617Z,22.49
2018-04-16T14:16:09.960Z,22.42
2018-04-16T14:21:11.281Z,22.65
2018-04-16T14:26:12.606Z,22.98
2018-04-16T14:31:13.924Z,23.25
2018-04-16T14:36:15.234Z,23.23
2018-04-16T14:41:17.317Z,23.22
2018-04-16T14:46:18.689Z,23.29
2018-04-16T14:51:20.061Z,23.58
2018-04-16T14:56:21.382Z,23.50
2018-04-16T15:01:22.727Z,23.02
2018-04-16T15:06:24.077Z,23.00
2018-04-16T15:11:26.166Z,23.45
2018-04-16T15:16:27.485Z,23.89
2018-04-16T15:21:29.539Z,24.02
2018-04-16T15:26:30.855Z,23.96
2018-04-16T15:31:32.166Z,23.92
2018-04-16T15:36:34.217Z,23.87
2018-04-16T15:41:35.517Z,23.20
2018-04-16T15:46:36.840Z,22.71
2018-04-16T15:51:38.171Z,22.39
2018-04-16T15:56:39.486Z,22.41
2018-04-16T16:01:40.798Z,22.92
2018-04-16T16:06:42.105Z,23.48
2018-04-16T16:11:44.294Z,23.74
2018-04-16T16:16:45.592Z,23.39
2018-04-16T16:21:47.665Z,23.28
2018-04-16T16:26:48.985Z,23.21
2018-04-16T16:31:50.377Z,22.79
2018-04-16T16:36:51.692Z,22.23
2018-04-16T16:41:53.030Z,22.02
2018-04-16T16:46:54.341Z,21.77
2018-04-16T16:51:55.671Z,21.61
2018-04-16T16:56:56.994Z,21.47
2018-04-16T17:01:58.327Z,21.48
2018-04-16T17:07:00.405Z,21.58
2018-04-16T17:12:01.721Z,21.54
2018-04-16T17:17:03.770Z,21.49
2018-04-16T17:22:05.103Z,21.53
2018-04-16T17:27:07.162Z,21.29
2018-04-16T17:32:08.514Z,21.02
2018-04-16T17:37:09.856Z,20.82
2018-04-16T17:42:11.198Z,20.59
2018-04-16T17:47:12.527Z,20.50
2018-04-16T17:52:14.000Z,20.28
2018-04-16T17:57:15.317Z,20.14
2018-04-16T18:02:16.622Z,19.98
2018-04-16T18:07:18.695Z,19.85
2018-04-16T18:12:20.025Z,19.94
2018-04-16T18:17:21.359Z,19.87
2018-04-16T18:22:22.689Z,19.75
2018-04-16T18:27:24.095Z,19.59
2018-04-16T18:32:25.456Z,19.52
2018-04-16T18:37:26.786Z,19.50
2018-04-16T18:42:28.869Z,19.50
2018-04-16T18:47:30.229Z,19.53
2018-04-16T18:52:31.594Z,19.55
2018-04-16T18:57:32.965Z,19.35
2018-04-16T19:02:35.025Z,19.13
2018-04-16T19:07:36.422Z,18.97
2018-04-16T19:12:39.140Z,18.78
2018-04-16T19:17:47.018Z,18.76
2018-04-16T19:22:48.633Z,18.75
2018-04-16T19:33:34.069Z,18.16
2018-04-16T19:38:35.411Z,17.94
2018-04-16T19:43:37.531Z,17.74
2018-04-16T19:48:44.931Z,17.63
2018-04-16T19:53:46.293Z,17.59
2018-04-16T19:58:47.610Z,17.45
2018-04-16T20:03:55.756Z,17.20
2018-04-16T20:08:57.049Z,17.24
2018-04-16T20:13:58.380Z,17.13
2018-04-16T20:18:59.673Z,16.90
2018-04-16T20:24:00.962Z,16.76
2018-04-16T20:29:02.335Z,16.74
2018-04-16T20:34:03.672Z,16.59
2018-04-16T20:39:05.026Z,16.60
2018-04-16T20:44:06.430Z,16.48
2018-04-16T20:49:07.769Z,16.44
2018-04-16T20:54:09.126Z,16.34
2018-04-16T20:59:10.450Z,16.31
2018-04-16T21:04:12.510Z,16.10
2018-04-16T21:09:13.850Z,16.11
2018-04-16T21:14:15.153Z,16.19
2018-04-16T21:19:17.231Z,15.93
2018-04-16T21:24:18.535Z,15.72
2018-04-16T21:29:19.829Z,15.62
2018-04-16T21:34:21.906Z,15.53
2018-04-16T21:39:23.209Z,15.60
2018-04-16T21:44:24.525Z,15.28
2018-04-16T21:49:25.865Z,15.34
2018-04-16T21:54:27.200Z,15.28
2018-04-16T21:59:29.270Z,15.27
2018-04-16T22:04:31.377Z,15.11
2018-04-16T22:09:32.735Z,15.22
2018-04-16T22:14:34.073Z,15.20
2018-04-16T22:19:35.449Z,14.90
2018-04-16T22:24:36.763Z,14.84
2018-04-16T22:29:38.069Z,14.83
2018-04-16T22:34:39.438Z,14.70
2018-04-16T22:39:41.508Z,14.52
2018-04-16T22:44:42.845Z,14.61
2018-04-16T22:49:44.170Z,14.57
2018-04-16T22:54:45.477Z,14.51
2018-04-16T22:59:46.793Z,14.39
2018-04-16T23:04:48.101Z,14.17
2018-04-16T23:09:49.401Z,13.86
2018-04-16T23:14:50.694Z,14.00
2018-04-16T23:19:51.991Z,13.94
2018-04-16T23:24:53.325Z,13.87
2018-04-16T23:29:54.633Z,13.78
2018-04-16T23:34:56.677Z,13.85
2018-04-16T23:39:58.026Z,13.72
2018-04-16T23:44:59.345Z,13.63
2018-04-16T23:50:00.647Z,13.64
2018-04-16T23:55:01.985Z,13.44
